createdAt,value
2019-03-21T00:01:37.662Z,36.63
2019-03-21T00:04:10.652Z,36.75
2019-03-21T00:06:41.024Z,35.60
2019-03-21T00:09:13.726Z,36.05
2019-03-21T00:12:07.077Z,35.27
2019-03-21T00:14:55.327Z,34.60
2019-03-21T00:17:28.452Z,34.60
2019-03-21T00:19:58.717Z,34.88
2019-03-21T00:22:29.377Z,34.92
2019-03-21T00:24:59.651Z,34.13
2019-03-21T00:27:29.876Z,35.55
2019-03-21T00:30:00.309Z,35.45
2019-03-21T00:32:30.839Z,33.98
2019-03-21T00:35:01.103Z,34.23
2019-03-21T00:37:32.332Z,33.42
2019-03-21T00:40:02.591Z,33.00
2019-03-21T00:42:32.892Z,32.00
2019-03-21T00:45:03.164Z,31.97
2019-03-21T00:47:33.924Z,32.48
2019-03-21T00:50:06.311Z,32.00
2019-03-21T00:52:36.604Z,30.97
2019-03-21T00:55:10.066Z,31.70
2019-03-21T00:57:40.379Z,30.20
2019-03-21T01:00:19.355Z,29.18
2019-03-21T01:02:51.114Z,28.60
2019-03-21T01:05:21.384Z,29.25
2019-03-21T01:07:55.333Z,28.07
2019-03-21T01:10:30.238Z,27.45
2019-03-21T01:13:00.539Z,27.70
2019-03-21T01:15:30.809Z,25.90
2019-03-21T01:18:01.101Z,25.70
2019-03-21T01:20:31.361Z,25.77
2019-03-21T01:23:01.655Z,24.12
2019-03-21T01:25:46.844Z,23.25
2019-03-21T01:28:17.144Z,23.35
2019-03-21T01:30:47.372Z,23.22
2019-03-21T01:33:17.656Z,23.10
2019-03-21T01:35:47.908Z,23.42
2019-03-21T01:38:18.240Z,23.12
2019-03-21T01:40:51.596Z,23.18
2019-03-21T01:43:22.660Z,22.27
2019-03-21T01:45:52.925Z,22.30
2019-03-21T01:48:23.182Z,21.93
2019-03-21T01:50:53.412Z,22.15
2019-03-21T01:53:23.682Z,20.77
2019-03-21T01:55:54.016Z,19.65
2019-03-21T01:58:25.427Z,20.12
2019-03-21T02:00:57.119Z,20.40
2019-03-21T02:03:27.425Z,20.60
2019-03-21T02:05:57.726Z,20.50
2019-03-21T02:08:27.965Z,20.95
2019-03-21T02:10:58.275Z,20.77
2019-03-21T02:13:28.474Z,19.80
2019-03-21T02:15:59.317Z,20.65
2019-03-21T02:18:29.689Z,20.20
2019-03-21T02:21:00.007Z,20.85
2019-03-21T02:23:30.287Z,20.37
2019-03-21T02:26:00.627Z,20.92
2019-03-21T02:28:30.924Z,21.23
2019-03-21T02:31:01.391Z,21.27
2019-03-21T02:33:33.489Z,21.57
2019-03-21T02:36:09.692Z,21.17
2019-03-21T02:38:39.873Z,20.12
2019-03-21T02:41:16.984Z,21.65
2019-03-21T02:43:47.255Z,21.02
2019-03-21T02:46:17.530Z,22.05
2019-03-21T02:48:48.021Z,20.30
2019-03-21T02:51:18.395Z,20.72
2019-03-21T02:53:48.592Z,22.05
2019-03-21T02:56:24.053Z,22.80
2019-03-21T02:58:54.691Z,21.57
2019-03-21T03:01:25.033Z,21.62
2019-03-21T03:03:55.342Z,22.48
2019-03-21T03:06:25.699Z,22.50
2019-03-21T03:08:56.018Z,21.77
2019-03-21T03:11:26.404Z,19.75
2019-03-21T03:13:56.690Z,20.02
2019-03-21T03:16:26.951Z,21.93
2019-03-21T03:18:57.245Z,18.92
2019-03-21T03:21:27.589Z,18.57
2019-03-21T03:23:57.842Z,18.37
2019-03-21T03:26:28.139Z,17.35
2019-03-21T03:28:58.416Z,17.35
2019-03-21T03:31:28.760Z,17.67
2019-03-21T03:33:59.026Z,15.93
2019-03-21T03:36:29.775Z,16.42
2019-03-21T03:39:00.080Z,17.07
2019-03-21T03:41:30.359Z,16.30
2019-03-21T03:44:00.624Z,14.73
2019-03-21T03:46:30.895Z,15.95
2019-03-21T03:49:01.754Z,15.20
2019-03-21T03:51:32.022Z,15.40
2019-03-21T03:54:02.326Z,15.90
2019-03-21T03:56:32.522Z,14.95
2019-03-21T03:59:05.766Z,14.30
2019-03-21T04:01:36.051Z,15.30
2019-03-21T04:04:07.358Z,15.13
2019-03-21T04:06:37.609Z,15.63
2019-03-21T04:09:09.142Z,16.00
2019-03-21T04:11:39.889Z,14.63
2019-03-21T04:14:10.741Z,15.48
2019-03-21T04:16:41.940Z,14.50
2019-03-21T04:19:12.555Z,13.15
2019-03-21T04:21:42.777Z,13.78
2019-03-21T04:24:13.064Z,13.65
2019-03-21T04:26:43.696Z,14.73
2019-03-21T04:29:13.979Z,13.95
2019-03-21T04:31:44.176Z,13.88
2019-03-21T04:34:14.464Z,14.50
2019-03-21T04:36:44.730Z,13.70
2019-03-21T04:39:15.022Z,14.53
2019-03-21T04:41:45.879Z,14.60
2019-03-21T04:44:16.195Z,14.80
2019-03-21T04:46:46.392Z,14.28
2019-03-21T04:49:16.643Z,15.10
2019-03-21T04:51:46.828Z,15.10
2019-03-21T04:54:17.054Z,15.28
2019-03-21T04:56:47.240Z,14.70
2019-03-21T04:59:17.988Z,15.80
2019-03-21T05:01:48.280Z,15.70
2019-03-21T05:04:18.518Z,15.72
2019-03-21T05:06:48.786Z,15.98
2019-03-21T05:09:19.037Z,17.42
2019-03-21T05:11:49.274Z,16.73
2019-03-21T05:14:19.510Z,16.37
2019-03-21T05:16:51.254Z,16.10
2019-03-21T05:19:21.545Z,17.40
2019-03-21T05:21:51.808Z,18.27
2019-03-21T05:24:22.469Z,17.87
2019-03-21T05:26:52.711Z,17.17
2019-03-21T05:29:23.024Z,16.85
2019-03-21T05:31:53.287Z,18.30
2019-03-21T05:34:23.583Z,17.50
2019-03-21T05:36:54.971Z,17.82
2019-03-21T05:39:25.282Z,18.23
2019-03-21T05:41:55.547Z,18.92
2019-03-21T05:44:30.824Z,19.90
2019-03-21T05:47:00.568Z,19.60
2019-03-21T05:49:30.956Z,19.85
2019-03-21T05:52:01.212Z,19.65
2019-03-21T05:54:31.521Z,18.45
2019-03-21T05:57:01.889Z,18.80
2019-03-21T05:59:32.183Z,17.73
2019-03-21T06:02:02.469Z,18.77
2019-03-21T06:04:32.767Z,17.20
2019-03-21T06:07:11.913Z,17.57
2019-03-21T06:09:42.239Z,16.93
2019-03-21T06:12:12.489Z,19.17
2019-03-21T06:14:48.524Z,18.05
2019-03-21T06:17:18.752Z,18.90
2019-03-21T06:19:51.920Z,19.27
2019-03-21T06:22:37.344Z,19.75
2019-03-21T06:25:18.864Z,19.30
2019-03-21T06:27:49.178Z,18.10
2019-03-21T06:30:38.703Z,18.98
2019-03-21T06:33:09.003Z,18.73
2019-03-21T06:35:40.382Z,18.80
2019-03-21T06:38:10.789Z,17.95
2019-03-21T06:40:41.075Z,18.62
2019-03-21T06:43:11.364Z,19.25
2019-03-21T06:45:47.844Z,18.27
2019-03-21T06:48:13.524Z,18.40
2019-03-21T06:50:43.816Z,18.32
2019-03-21T06:53:14.108Z,17.85
2019-03-21T06:55:44.516Z,20.27
2019-03-21T06:58:14.775Z,18.65
2019-03-21T07:00:45.170Z,19.75
2019-03-21T07:03:16.530Z,19.17
2019-03-21T07:05:47.035Z,19.42
2019-03-21T07:08:17.249Z,21.62
2019-03-21T07:10:47.550Z,19.15
2019-03-21T07:13:17.750Z,18.70
2019-03-21T07:15:48.238Z,19.67
2019-03-21T07:18:18.512Z,19.30
2019-03-21T07:20:48.786Z,21.00
2019-03-21T07:23:19.057Z,19.20
2019-03-21T07:25:49.524Z,19.50
2019-03-21T07:28:20.659Z,19.05
2019-03-21T07:30:51.002Z,18.87
2019-03-21T07:33:21.324Z,18.75
2019-03-21T07:35:51.650Z,19.00
2019-03-21T07:38:23.049Z,20.00
2019-03-21T07:40:53.321Z,19.65
2019-03-21T07:43:23.617Z,19.62
2019-03-21T07:45:53.871Z,19.25
2019-03-21T07:48:24.171Z,37.90
2019-03-21T07:50:54.370Z,51.25
2019-03-21T07:53:24.672Z,32.05
2019-03-21T07:55:54.933Z,31.00
2019-03-21T07:58:25.281Z,24.82
2019-03-21T08:00:55.521Z,24.23
2019-03-21T08:03:25.811Z,22.40
2019-03-21T08:05:56.083Z,21.35
2019-03-21T08:08:26.371Z,23.15
2019-03-21T08:10:56.706Z,27.02
2019-03-21T08:13:26.877Z,24.07
2019-03-21T08:15:57.139Z,23.95
2019-03-21T08:18:27.460Z,25.35
2019-03-21T08:20:59.995Z,22.65
2019-03-21T08:23:29.689Z,23.40
2019-03-21T08:25:59.963Z,23.42
2019-03-21T08:28:30.235Z,21.40
2019-03-21T08:31:09.188Z,22.25
2019-03-21T08:33:39.435Z,22.25
2019-03-21T08:36:09.764Z,22.40
2019-03-21T08:38:39.996Z,22.62
2019-03-21T08:41:10.541Z,21.00
2019-03-21T08:43:40.739Z,21.05
2019-03-21T08:46:10.938Z,21.23
2019-03-21T08:48:41.193Z,22.00
2019-03-21T08:51:11.519Z,20.80
2019-03-21T08:53:41.793Z,22.07
2019-03-21T08:56:12.066Z,22.58
2019-03-21T08:58:42.304Z,21.60
2019-03-21T09:01:13.361Z,21.77
2019-03-21T09:03:43.627Z,22.67
2019-03-21T09:06:13.949Z,22.45
2019-03-21T09:08:44.187Z,23.57
2019-03-21T09:11:14.478Z,22.15
2019-03-21T09:13:44.706Z,22.98
2019-03-21T09:16:14.978Z,23.18
2019-03-21T09:18:45.289Z,22.85
2019-03-21T09:21:19.927Z,24.02
2019-03-21T09:23:47.485Z,24.65
2019-03-21T09:26:17.775Z,22.82
2019-03-21T09:28:48.087Z,24.75
2019-03-21T09:31:18.372Z,24.47
2019-03-21T09:33:48.678Z,24.32
2019-03-21T09:36:18.986Z,24.25
2019-03-21T09:38:49.285Z,25.62
2019-03-21T09:41:19.630Z,24.90
2019-03-21T09:43:49.960Z,25.00
2019-03-21T09:46:20.236Z,24.80
2019-03-21T09:48:50.557Z,25.17
2019-03-21T09:51:30.655Z,24.75
2019-03-21T09:53:53.513Z,26.02
2019-03-21T09:56:24.157Z,24.95
2019-03-21T09:58:54.535Z,25.95
2019-03-21T10:01:24.827Z,24.35
2019-03-21T10:03:55.052Z,24.55
2019-03-21T10:06:25.258Z,25.55
2019-03-21T10:08:56.280Z,24.95
2019-03-21T10:11:26.682Z,26.42
2019-03-21T10:13:56.984Z,27.52
2019-03-21T10:16:27.315Z,24.37
2019-03-21T10:18:59.744Z,24.72
2019-03-21T10:21:30.037Z,24.72
2019-03-21T10:24:00.277Z,25.27
2019-03-21T10:26:30.554Z,24.15
2019-03-21T10:29:00.861Z,25.95
2019-03-21T10:31:31.136Z,25.60
2019-03-21T10:34:01.377Z,25.23
2019-03-21T10:36:31.772Z,24.90
2019-03-21T10:39:02.060Z,24.77
2019-03-21T10:41:32.350Z,25.05
2019-03-21T10:44:03.760Z,25.50
2019-03-21T10:46:34.012Z,26.02
2019-03-21T10:49:04.340Z,26.35
2019-03-21T10:51:34.609Z,23.02
2019-03-21T10:54:05.853Z,23.30
2019-03-21T10:56:36.141Z,24.30
2019-03-21T10:59:06.379Z,25.72
2019-03-21T11:01:36.651Z,24.72
2019-03-21T11:04:06.955Z,24.90
2019-03-21T11:06:37.146Z,24.30
2019-03-21T11:09:08.783Z,24.47
2019-03-21T11:11:39.089Z,25.17
2019-03-21T11:14:09.415Z,25.88
2019-03-21T11:16:39.698Z,25.12
2019-03-21T11:19:09.989Z,24.60
2019-03-21T11:21:41.302Z,23.38
2019-03-21T11:24:11.511Z,24.43
2019-03-21T11:26:41.872Z,24.15
2019-03-21T11:29:12.131Z,24.90
2019-03-21T11:31:42.435Z,26.75
2019-03-21T11:34:12.699Z,26.17
2019-03-21T11:36:43.020Z,26.37
2019-03-21T11:39:13.334Z,25.00
2019-03-21T11:41:43.692Z,26.97
2019-03-21T11:44:14.154Z,25.50
2019-03-21T11:46:44.349Z,26.33
2019-03-21T11:49:15.031Z,25.48
2019-03-21T11:51:45.280Z,26.85
2019-03-21T11:54:15.600Z,25.70
2019-03-21T11:56:45.882Z,24.87
2019-03-21T11:59:16.188Z,24.57
2019-03-21T12:01:46.490Z,23.38
2019-03-21T12:04:16.852Z,22.52
2019-03-21T12:06:47.130Z,24.30
2019-03-21T12:09:17.434Z,22.20
2019-03-21T12:11:47.648Z,22.75
2019-03-21T12:14:18.840Z,25.37
2019-03-21T12:16:49.264Z,25.00
2019-03-21T12:19:19.582Z,20.52
2019-03-21T12:21:49.854Z,20.77
2019-03-21T12:24:20.184Z,20.70
2019-03-21T12:26:51.028Z,24.72
2019-03-21T12:29:21.227Z,23.70
2019-03-21T12:31:51.578Z,20.37
2019-03-21T12:34:21.896Z,19.95
2019-03-21T12:36:52.189Z,19.30
2019-03-21T12:39:22.521Z,18.20
2019-03-21T12:41:52.784Z,19.02
2019-03-21T12:44:23.010Z,20.52
2019-03-21T12:46:53.756Z,19.75
2019-03-21T12:49:24.027Z,19.07
2019-03-21T12:51:54.222Z,19.27
2019-03-21T12:54:24.541Z,19.10
2019-03-21T12:56:54.805Z,19.30
2019-03-21T12:59:25.844Z,18.73
2019-03-21T13:01:57.317Z,18.17
2019-03-21T13:04:27.641Z,17.57
2019-03-21T13:06:57.927Z,15.03
2019-03-21T13:09:28.225Z,15.88
2019-03-21T13:11:58.441Z,16.17
2019-03-21T13:14:28.710Z,17.27
2019-03-21T13:16:59.105Z,17.20
2019-03-21T13:19:29.431Z,18.57
2019-03-21T13:21:59.739Z,15.65
2019-03-21T13:24:30.063Z,14.47
2019-03-21T13:27:00.488Z,14.30
2019-03-21T13:29:30.748Z,11.85
2019-03-21T13:32:01.055Z,13.00
2019-03-21T13:34:31.258Z,11.20
2019-03-21T13:37:01.497Z,10.20
2019-03-21T13:39:31.703Z,11.10
2019-03-21T13:42:02.008Z,9.45
2019-03-21T13:44:32.282Z,11.18
2019-03-21T13:47:02.595Z,13.00
2019-03-21T13:49:32.897Z,13.15
2019-03-21T13:52:04.749Z,13.28
2019-03-21T13:54:35.478Z,14.00
2019-03-21T13:57:05.809Z,15.00
2019-03-21T13:59:36.117Z,12.98
2019-03-21T14:02:06.441Z,12.03
2019-03-21T14:04:36.712Z,11.88
2019-03-21T14:07:07.092Z,12.05
2019-03-21T14:09:38.560Z,14.03
2019-03-21T14:12:08.789Z,13.48
2019-03-21T14:14:38.982Z,16.05
2019-03-21T14:17:09.320Z,17.92
2019-03-21T14:19:39.622Z,16.48
2019-03-21T14:22:13.508Z,18.52
2019-03-21T14:24:43.905Z,20.37
2019-03-21T14:27:14.225Z,19.25
2019-03-21T14:29:44.457Z,18.67
2019-03-21T14:32:14.696Z,19.75
2019-03-21T14:34:44.980Z,19.12
2019-03-21T14:37:15.279Z,19.50
2019-03-21T14:39:45.574Z,19.50
2019-03-21T14:42:15.891Z,16.82
2019-03-21T14:44:47.079Z,16.10
2019-03-21T14:47:17.494Z,13.72
2019-03-21T14:49:47.818Z,14.33
2019-03-21T14:52:18.121Z,15.88
2019-03-21T14:54:48.430Z,16.42
2019-03-21T14:57:18.744Z,16.70
2019-03-21T14:59:49.014Z,17.10
2019-03-21T15:02:21.304Z,16.70
2019-03-21T15:04:51.611Z,18.25
2019-03-21T15:07:21.903Z,15.95
2019-03-21T15:09:52.236Z,15.72
2019-03-21T15:12:22.537Z,14.85
2019-03-21T15:14:52.977Z,14.28
2019-03-21T15:17:23.247Z,13.95
2019-03-21T15:19:54.608Z,14.45
2019-03-21T15:22:24.952Z,14.35
2019-03-21T15:24:55.149Z,14.43
2019-03-21T15:27:25.487Z,15.25
2019-03-21T15:29:55.792Z,15.25
2019-03-21T15:32:27.089Z,15.55
2019-03-21T15:34:57.433Z,15.50
2019-03-21T15:37:27.780Z,16.70
2019-03-21T15:39:58.038Z,17.67
2019-03-21T15:42:28.393Z,18.45
2019-03-21T15:45:15.448Z,19.12
2019-03-21T15:47:30.604Z,19.07
2019-03-21T15:50:00.841Z,19.05
2019-03-21T15:52:31.123Z,19.95
2019-03-21T15:55:01.563Z,16.65
2019-03-21T15:57:33.388Z,16.12
2019-03-21T16:00:08.616Z,16.25
2019-03-21T16:02:39.177Z,17.10
2019-03-21T16:05:11.259Z,17.25
2019-03-21T16:07:41.577Z,16.05
2019-03-21T16:10:11.799Z,17.00
2019-03-21T16:12:42.091Z,16.17
2019-03-21T16:15:12.715Z,15.00
2019-03-21T16:17:42.987Z,14.68
2019-03-21T16:20:13.287Z,14.30
2019-03-21T16:22:43.595Z,14.18
2019-03-21T16:25:13.914Z,14.25
2019-03-21T16:27:44.185Z,16.57
2019-03-21T16:30:15.532Z,14.13
2019-03-21T16:32:45.748Z,15.23
2019-03-21T16:35:16.096Z,13.68
2019-03-21T16:37:46.297Z,14.83
2019-03-21T16:40:16.946Z,15.10
2019-03-21T16:42:47.253Z,16.55
2019-03-21T16:45:17.536Z,16.17
2019-03-21T16:47:47.865Z,16.30
2019-03-21T16:50:19.800Z,15.88
2019-03-21T16:52:50.147Z,15.10
2019-03-21T16:55:20.511Z,16.87
2019-03-21T16:57:50.840Z,17.48
2019-03-21T17:00:21.293Z,17.65
2019-03-21T17:02:51.609Z,17.15
2019-03-21T17:05:22.608Z,17.70
2019-03-21T17:07:53.156Z,17.35
2019-03-21T17:10:23.765Z,20.02
2019-03-21T17:12:54.107Z,18.40
2019-03-21T17:15:24.580Z,19.67
2019-03-21T17:17:55.059Z,17.73
2019-03-21T17:20:25.354Z,18.02
2019-03-21T17:22:55.719Z,18.37
2019-03-21T17:25:25.991Z,18.48
2019-03-21T17:27:56.950Z,19.50
2019-03-21T17:30:27.150Z,20.45
2019-03-21T17:32:57.493Z,20.25
2019-03-21T17:35:27.704Z,20.55
2019-03-21T17:38:01.254Z,19.45
2019-03-21T17:43:00.877Z,19.87
2019-03-21T17:45:31.145Z,19.90
2019-03-21T17:48:01.496Z,21.55
2019-03-21T17:50:31.756Z,20.62
2019-03-21T17:53:02.255Z,22.62
2019-03-21T17:55:32.521Z,22.22
2019-03-21T17:58:02.859Z,23.60
2019-03-21T18:00:36.617Z,23.00
2019-03-21T18:05:38.198Z,25.05
2019-03-21T18:08:08.658Z,25.43
2019-03-21T18:10:39.061Z,27.42
2019-03-21T18:13:09.358Z,29.95
2019-03-21T18:15:39.663Z,29.55
2019-03-21T18:18:10.013Z,28.75
2019-03-21T18:20:40.318Z,28.73
2019-03-21T18:23:10.609Z,29.92
2019-03-21T18:25:40.832Z,31.15
2019-03-21T18:28:11.149Z,30.57
2019-03-21T18:30:41.462Z,31.80
2019-03-21T18:33:12.255Z,34.33
2019-03-21T18:35:42.683Z,35.05
2019-03-21T18:38:12.886Z,34.30
2019-03-21T18:40:43.242Z,32.67
2019-03-21T18:43:14.664Z,33.60
2019-03-21T18:45:44.938Z,33.53
2019-03-21T18:48:15.259Z,38.58
2019-03-21T18:50:45.524Z,35.50
2019-03-21T18:53:15.931Z,36.50
2019-03-21T18:55:46.260Z,35.13
2019-03-21T18:58:16.553Z,35.00
2019-03-21T19:00:46.837Z,36.38
2019-03-21T19:03:17.181Z,35.83
2019-03-21T19:05:47.462Z,34.10
2019-03-21T19:08:17.787Z,34.92
2019-03-21T19:10:48.062Z,33.40
2019-03-21T19:13:18.391Z,34.63
2019-03-21T19:15:48.837Z,35.25
2019-03-21T19:18:19.129Z,38.38
2019-03-21T19:20:49.466Z,38.75
2019-03-21T19:23:19.736Z,40.50
2019-03-21T19:25:50.335Z,37.55
2019-03-21T19:28:20.621Z,40.73
2019-03-21T19:30:50.920Z,44.08
2019-03-21T19:33:22.735Z,50.92
2019-03-21T19:35:53.086Z,53.80
2019-03-21T19:38:23.987Z,59.38
2019-03-21T19:40:54.499Z,51.13
2019-03-21T19:43:25.765Z,51.08
2019-03-21T19:45:56.206Z,51.23
2019-03-21T19:48:26.470Z,48.85
2019-03-21T19:50:56.823Z,50.50
2019-03-21T19:53:28.901Z,48.98
2019-03-21T19:56:08.083Z,49.25
2019-03-21T19:58:31.570Z,50.98
2019-03-21T20:01:01.884Z,52.83
2019-03-21T20:03:33.265Z,55.67
2019-03-21T20:06:03.647Z,56.05
2019-03-21T20:08:33.924Z,62.23
2019-03-21T20:11:04.200Z,57.17
2019-03-21T20:13:34.542Z,56.90
2019-03-21T20:16:04.785Z,57.80
2019-03-21T20:18:35.316Z,54.55
2019-03-21T20:21:05.628Z,52.17
2019-03-21T20:23:36.047Z,62.43
2019-03-21T20:26:06.459Z,60.00
2019-03-21T20:28:36.805Z,61.18
2019-03-21T20:31:07.088Z,60.38
2019-03-21T20:33:37.413Z,62.50
2019-03-21T20:36:07.693Z,63.28
2019-03-21T20:38:38.013Z,61.55
2019-03-21T20:41:09.297Z,63.30
2019-03-21T20:43:39.673Z,60.43
2019-03-21T20:46:09.981Z,64.47
2019-03-21T20:48:39.079Z,65.45
2019-03-21T20:51:09.447Z,62.93
2019-03-21T20:53:39.780Z,64.22
2019-03-21T20:56:10.075Z,66.75
2019-03-21T20:58:40.401Z,73.62
2019-03-21T21:01:10.743Z,71.57
2019-03-21T21:03:41.039Z,65.10
2019-03-21T21:06:11.414Z,66.85
2019-03-21T21:08:41.718Z,68.67
2019-03-21T21:11:12.025Z,61.95
2019-03-21T21:13:42.341Z,64.97
2019-03-21T21:16:12.619Z,63.90
2019-03-21T21:18:42.992Z,65.17
2019-03-21T21:21:13.319Z,63.30
2019-03-21T21:23:43.593Z,65.78
2019-03-21T21:26:13.955Z,63.33
2019-03-21T21:28:44.232Z,61.18
2019-03-21T21:31:14.589Z,60.10
2019-03-21T21:33:44.880Z,65.03
2019-03-21T21:36:21.973Z,86.00
2019-03-21T21:38:47.165Z,101.42
2019-03-21T21:41:17.523Z,86.95
2019-03-21T21:43:47.803Z,90.15
2019-03-21T21:46:18.417Z,134.20
2019-03-21T21:48:48.667Z,109.70
2019-03-21T21:51:19.034Z,105.30
2019-03-21T21:53:49.308Z,110.85
2019-03-21T21:56:19.647Z,117.90
2019-03-21T21:58:49.932Z,111.92
2019-03-21T22:01:20.308Z,110.30
2019-03-21T22:03:50.572Z,110.35
2019-03-21T22:06:21.089Z,118.08
2019-03-21T22:08:51.690Z,125.35
2019-03-21T22:11:22.098Z,123.40
2019-03-21T22:13:52.376Z,118.15
2019-03-21T22:16:22.885Z,107.85
2019-03-21T22:18:53.156Z,112.03
2019-03-21T22:21:24.007Z,103.40
2019-03-21T22:23:54.246Z,104.30
2019-03-21T22:26:29.643Z,95.83
2019-03-21T22:28:56.510Z,86.60
2019-03-21T22:31:26.813Z,86.55
2019-03-21T22:33:57.083Z,89.75
2019-03-21T22:36:27.424Z,88.15
2019-03-21T22:38:57.701Z,88.10
2019-03-21T22:41:28.062Z,89.62
2019-03-21T22:43:58.352Z,96.02
2019-03-21T22:46:29.128Z,96.95
2019-03-21T22:48:59.308Z,100.02
2019-03-21T22:51:29.530Z,100.47
2019-03-21T22:53:59.862Z,96.65
2019-03-21T22:56:40.518Z,87.20
2019-03-21T22:59:01.923Z,88.75
2019-03-21T23:01:33.002Z,83.97
2019-03-21T23:04:03.302Z,93.25
2019-03-21T23:06:33.580Z,98.15
2019-03-21T23:09:05.132Z,102.78
2019-03-21T23:11:35.702Z,100.75
2019-03-21T23:14:05.992Z,97.17
2019-03-21T23:16:37.244Z,101.90
2019-03-21T23:19:07.631Z,108.78
2019-03-21T23:21:37.836Z,114.25
2019-03-21T23:24:08.191Z,108.85
2019-03-21T23:26:38.403Z,110.50
2019-03-21T23:29:08.794Z,103.90
2019-03-21T23:31:38.999Z,100.53
2019-03-21T23:34:09.291Z,99.35
2019-03-21T23:36:40.563Z,104.27
2019-03-21T23:39:11.533Z,101.62
2019-03-21T23:41:55.439Z,108.35
2019-03-21T23:46:55.020Z,110.40
2019-03-21T23:49:25.363Z,112.47
2019-03-21T23:51:56.215Z,112.60
2019-03-21T23:54:26.532Z,115.10
2019-03-21T23:57:04.404Z,114.57
2019-03-21T23:59:29.332Z,115.90
